Aviation Digital Data Service (ADDS)

Output produced by METARs form (0024 UTC 17 July 2019)
found at http://www.aviationweather.gov/metar/data/
 
MUSC 162300Z 1700/1724 09009KT 9000 SCT020 
     BECMG 1701/1703 VRB03KT FEW020 
     BECMG 1713/1715 12008KT SCT020 
     TEMPO 1719/1724 VRB10KT 3000 TSRA SCT018CB BKN020
       
MUCU 162300Z 1700/1724 VRB03KT 9000 SCT020 
     BECMG 1704/1706 36005KT FEW020 
     BECMG 1715/1717 17009KT SCT020 
     TEMPO 1718/1724 SCT020CB
       
MUHG 162300Z 1700/1724 09008KT 9000 SCT020 
     BECMG 1701/1703 06007KT FEW020 
     BECMG 1713/1715 10010KT SCT020
       
TAF MUGM 1623/1723 12009KT 9999 FEW030 BKN120 BKN250 QNH3000INS 
     BECMG 1702/1704 35007KT 9999 FEW030 SCT250 QNH2999INS 
     FM171500 12015KT 9999 FEW030 FEW150 SCT250 QHN2999INS 
     FM171800 12018KT 9999 FEW030 FEW150 FEW250 QNH2996INS T26/1708Z T31/1716Z
FN20069
       
MUCM 162300Z 1700/1724 06009KT 9000 SCT020 
     BECMG 1702/1704 05005KT FEW020 
     BECMG 1713/1715 06010KT SCT020 
     TEMPO 1719/1724 5000 TSRA SCT018CB BKN020
       
MUCF 161700Z 1618/1706 22009KT 9000 SCT020 
     TEMPO 1619/1624 VRB10KT 4000 SHRA SCT018CB BKN020 
     BECMG 1701/1703 VRB03KT FEW020
       
MUCC 162300Z 1700/1724 09013KT 9000 SCT020 
     BECMG 1702/1704 09007KT FEW020 
     BECMG 1713/1715 10010KT SCT020
       
MUHA 162300Z 1700/1724 09010KT 9000 FEW025 
     BECMG 1701/1703 09003KT 
     BECMG 1713/1715 09010KT 
     TEMPO 1720/1723 VRB10KT 3000 TSRA FEW020CB BKN030
       
MUVR 162300Z 1700/1724 06009KT 9000 SCT020 
     BECMG 1702/1704 VRB03KT FEW020 
     BECMG 1715/1717 06011KT SCT020
       
MUCL 161700Z 1618/1706 09011KT 9000 SCT020 
     TEMPO 1618/1624 4000 TSRA SCT015CB BKN018 
     BECMG 1701/1703 VRB03KT FEW020